createdAt,value
2018-10-03T00:00:24.266Z,1017.66
2018-10-03T00:01:24.496Z,1017.65
2018-10-03T00:02:48.146Z,1017.69
2018-10-03T00:03:48.463Z,1017.65
2018-10-03T00:04:48.788Z,1017.65
2018-10-03T00:05:48.300Z,1017.64
2018-10-03T00:06:48.584Z,1017.59
2018-10-03T00:07:48.981Z,1017.63
2018-10-03T00:09:32.816Z,1017.67
2018-10-03T00:10:21.270Z,1017.69
2018-10-03T00:11:21.496Z,1017.68
2018-10-03T00:12:20.964Z,1017.68
2018-10-03T00:13:21.388Z,1017.69
2018-10-03T00:14:21.703Z,1017.68
2018-10-03T00:15:21.266Z,1017.64
2018-10-03T00:16:21.644Z,1017.64
2018-10-03T00:17:21.017Z,1017.62
2018-10-03T00:18:22.082Z,1017.60
2018-10-03T00:20:03.441Z,1017.66
2018-10-03T00:21:03.761Z,1017.64
2018-10-03T00:22:04.035Z,1017.72
2018-10-03T00:23:04.110Z,1017.68
2018-10-03T00:24:04.197Z,1017.64
2018-10-03T00:25:03.479Z,1017.66
2018-10-03T00:26:03.986Z,1017.71
2018-10-03T00:27:24.764Z,1017.76
2018-10-03T00:28:24.994Z,1017.75
2018-10-03T00:30:07.412Z,1017.74
2018-10-03T00:31:07.976Z,1017.72
2018-10-03T00:32:08.267Z,1017.71
2018-10-03T00:33:07.721Z,1017.69
2018-10-03T00:34:08.327Z,1017.64
2018-10-03T00:35:07.580Z,1017.68
2018-10-03T00:36:29.162Z,1017.70
2018-10-03T00:37:29.344Z,1017.70
2018-10-03T00:38:29.598Z,1017.69
2018-10-03T00:39:29.019Z,1017.69
2018-10-03T00:40:29.396Z,1017.69
2018-10-03T00:41:29.730Z,1017.66
2018-10-03T00:42:29.171Z,1017.65
2018-10-03T00:43:29.360Z,1017.69
2018-10-03T00:44:29.881Z,1017.64
2018-10-03T00:45:28.980Z,1017.71
2018-10-03T00:46:29.198Z,1017.68
2018-10-03T00:47:29.470Z,1017.59
2018-10-03T00:48:29.626Z,1017.69
2018-10-03T00:49:29.878Z,1017.72
2018-10-03T00:50:29.129Z,1017.71
2018-10-03T00:51:29.362Z,1017.70
2018-10-03T00:52:50.780Z,1017.70
2018-10-03T00:53:51.186Z,1017.73
2018-10-03T00:54:51.385Z,1017.73
2018-10-03T00:55:51.806Z,1017.73
2018-10-03T00:56:51.120Z,1017.71
2018-10-03T00:57:51.362Z,1017.70
2018-10-03T00:58:51.954Z,1017.70
2018-10-03T00:59:51.273Z,1017.71
2018-10-03T01:01:13.016Z,1017.74
2018-10-03T01:02:13.390Z,1017.71
2018-10-03T01:03:55.788Z,1017.77
2018-10-03T01:04:56.118Z,1017.83
2018-10-03T01:05:56.519Z,1017.79
2018-10-03T01:06:56.898Z,1017.83
2018-10-03T01:07:56.240Z,1017.85
2018-10-03T01:08:56.463Z,1017.81
2018-10-03T01:09:56.561Z,1017.81
2018-10-03T01:10:55.980Z,1017.82
2018-10-03T01:11:56.286Z,1017.82
2018-10-03T01:12:56.506Z,1017.84
2018-10-03T01:13:56.649Z,1017.83
2018-10-03T01:15:18.008Z,1017.92
2018-10-03T01:17:01.064Z,1017.93
2018-10-03T01:18:01.538Z,1017.96
2018-10-03T01:19:01.970Z,1017.97
2018-10-03T01:20:01.350Z,1018.01
2018-10-03T01:21:01.678Z,1017.99
2018-10-03T01:22:01.214Z,1018.03
2018-10-03T01:23:01.409Z,1018.04
2018-10-03T01:24:01.768Z,1018.02
2018-10-03T01:25:01.225Z,1018.04
2018-10-03T01:26:01.576Z,1018.03
2018-10-03T01:27:01.777Z,1018.04
2018-10-03T01:28:00.986Z,1018.07
2018-10-03T01:29:01.386Z,1018.04
2018-10-03T01:30:01.622Z,1017.97
2018-10-03T01:31:01.862Z,1018.04
2018-10-03T01:32:01.071Z,1018.04
2018-10-03T01:33:01.481Z,1018.02
2018-10-03T01:34:01.554Z,1018.06
2018-10-03T01:35:01.849Z,1018.04
2018-10-03T01:36:01.055Z,1018.05
2018-10-03T01:37:01.206Z,1018.03
2018-10-03T01:38:01.328Z,1018.01
2018-10-03T01:39:01.716Z,1018.06
2018-10-03T01:40:01.166Z,1018.09
2018-10-03T01:41:01.562Z,1018.09
2018-10-03T01:42:00.976Z,1018.11
2018-10-03T01:43:01.104Z,1018.14
2018-10-03T01:44:01.108Z,1018.13
2018-10-03T01:45:01.449Z,1018.13
2018-10-03T01:46:01.947Z,1018.11
2018-10-03T01:47:01.111Z,1018.10
2018-10-03T01:48:01.435Z,1018.09
2018-10-03T01:49:01.693Z,1018.09
2018-10-03T01:50:01.197Z,1018.08
2018-10-03T01:51:01.630Z,1018.05
2018-10-03T01:52:01.859Z,1018.06
2018-10-03T01:53:01.439Z,1018.05
2018-10-03T01:54:01.607Z,1018.09
2018-10-03T01:55:00.896Z,1018.10
2018-10-03T01:56:22.126Z,1018.07
2018-10-03T01:57:22.373Z,1018.10
2018-10-03T01:58:22.797Z,1018.10
2018-10-03T01:59:23.096Z,1018.15
2018-10-03T02:00:22.663Z,1018.11
2018-10-03T02:01:22.993Z,1018.14
2018-10-03T02:02:44.058Z,1018.17
2018-10-03T02:03:44.559Z,1018.19
2018-10-03T02:04:43.867Z,1018.16
2018-10-03T02:05:44.590Z,1018.23
2018-10-03T02:06:44.051Z,1018.21
2018-10-03T02:07:45.371Z,1018.26
2018-10-03T02:08:44.777Z,1018.24
2018-10-03T02:10:05.430Z,1018.33
2018-10-03T02:11:05.468Z,1018.35
2018-10-03T02:12:05.640Z,1018.32
2018-10-03T02:13:05.927Z,1018.36
2018-10-03T02:14:06.490Z,1018.34
2018-10-03T02:15:05.701Z,1018.36
2018-10-03T02:16:05.821Z,1018.33
2018-10-03T02:17:06.264Z,1018.34
2018-10-03T02:18:05.515Z,1018.34
2018-10-03T02:19:05.554Z,1018.39
2018-10-03T02:20:05.902Z,1018.35
2018-10-03T02:21:05.245Z,1018.37
2018-10-03T02:22:05.648Z,1018.34
2018-10-03T02:23:05.819Z,1018.29
2018-10-03T02:24:05.868Z,1018.35
2018-10-03T02:25:05.978Z,1018.35
2018-10-03T02:26:05.971Z,1018.36
2018-10-03T02:27:05.276Z,1018.36
2018-10-03T02:28:10.189Z,1018.34
2018-10-03T02:29:05.359Z,1018.32
2018-10-03T02:30:05.907Z,1018.34
2018-10-03T02:31:05.343Z,1018.30
2018-10-03T02:32:05.974Z,1018.31
2018-10-03T02:33:16.811Z,1018.32
2018-10-03T02:34:06.253Z,1018.30
2018-10-03T02:35:09.657Z,1018.37
2018-10-03T02:36:11.106Z,1018.35
2018-10-03T02:37:08.717Z,1018.37
2018-10-03T02:38:07.745Z,1018.35
2018-10-03T02:39:06.851Z,1018.38
2018-10-03T02:40:06.104Z,1018.32
2018-10-03T02:41:05.547Z,1018.39
2018-10-03T02:42:05.949Z,1018.36
2018-10-03T02:43:05.143Z,1018.42
2018-10-03T02:44:05.358Z,1018.37
2018-10-03T02:45:26.807Z,1018.43
2018-10-03T02:46:27.026Z,1018.44
2018-10-03T02:47:27.258Z,1018.48
2018-10-03T02:48:27.727Z,1018.46
2018-10-03T02:49:26.991Z,1018.45
2018-10-03T02:50:28.909Z,1018.51
2018-10-03T02:51:27.238Z,1018.50
2018-10-03T02:52:27.568Z,1018.47
2018-10-03T02:53:26.788Z,1018.46
2018-10-03T02:54:27.241Z,1018.46
2018-10-03T02:55:37.465Z,1018.43
2018-10-03T02:56:37.574Z,1018.48
2018-10-03T02:57:37.736Z,1018.50
2018-10-03T02:58:38.145Z,1018.52
2018-10-03T02:59:38.279Z,1018.50
2018-10-03T03:00:37.680Z,1018.50
2018-10-03T03:01:38.301Z,1018.53
2018-10-03T03:02:37.750Z,1018.58
2018-10-03T03:03:38.342Z,1018.49
2018-10-03T03:04:37.583Z,1018.57
2018-10-03T03:05:37.936Z,1018.50
2018-10-03T03:06:38.165Z,1018.51
2018-10-03T03:07:58.535Z,1018.57
2018-10-03T03:08:58.964Z,1018.58
2018-10-03T03:09:59.946Z,1018.62
2018-10-03T03:10:59.215Z,1018.60
2018-10-03T03:11:59.332Z,1018.57
2018-10-03T03:12:58.734Z,1018.50
2018-10-03T03:13:58.970Z,1018.56
2018-10-03T03:14:59.305Z,1018.62
2018-10-03T03:15:58.506Z,1018.66
2018-10-03T03:16:58.942Z,1018.64
2018-10-03T03:17:59.251Z,1018.63
2018-10-03T03:18:58.394Z,1018.65
2018-10-03T03:19:58.752Z,1018.66
2018-10-03T03:20:59.203Z,1018.62
2018-10-03T03:22:19.698Z,1018.72
2018-10-03T03:23:20.000Z,1018.68
2018-10-03T03:24:20.259Z,1018.67
2018-10-03T03:25:19.564Z,1018.59
2018-10-03T03:26:19.762Z,1018.68
2018-10-03T03:27:19.979Z,1018.68
2018-10-03T03:28:20.102Z,1018.73
2018-10-03T03:29:20.264Z,1018.74
2018-10-03T03:30:20.563Z,1018.73
2018-10-03T03:31:19.724Z,1018.77
2018-10-03T03:32:40.873Z,1018.81
2018-10-03T03:33:41.190Z,1018.80
2018-10-03T03:34:41.543Z,1018.82
